Aérodrome :
LOGIN :

S'inscrire | Disclaimer

   EN    FR    IT 

 










Légende :    VFR   VFR Marginal   IFR   IFR Intensif   IFR Très Intensif
Visi : 
Plafond : 
>= 8 km
>= 3000ft
5 à 8 km
1000 à 3000 ft
1500m à 5 km
500 à 1000 ft
800 à 1500m
200 à 500 ft
< 800m
< 200 ft
Symboles :   Orages  Brouillard  Fortes neiges  Fortes précipitations  Vent > 20 kt
SIGMETs :   Divers  Orages  Givrage  Turbulence  Onde Orograph.  Cendres Volcan.






- Altitude de l'aérodrome : 22 ft
- Code IATA : LDY


EGAE - Londonderry Eglington

DERNIER METAR :
  • 281420Z 24021KT 9999 -SHRASN FEW018 BKN036 05/03 Q0989

METARs EXPIRÉS :
  • 281350Z 24017KT 9999 VCSH FEW018 SCT040 05/03 Q0989
  • 281320Z 23019KT 9999 FEW018 SCT040 05/03 Q0988
  • 281250Z 23018KT 9999 FEW008 SCT015 BKN034 05/03 Q0988
  • 281220Z 23011KT 9999 VCSH FEW007 SCT015CB BKN042 04/03 Q0988
  • 281150Z 24011KT 9999 VCSH FEW007 BKN017 03/02 Q0988 RESHRA

TAF TAF EGAE
Valide du 28 à 15h jusqu'au 28 à 21h UTC


281359Z 2815/2821 23015KT 9999 FEW015CB SCT025
TEMPO 2815/2821 25020G30KT 4000 +SHRA SHGS SCT008 BKN014CB
PROB30
TEMPO 2815/2821 BKN008



MET'MAP, la Météo Aéronautique d'un coup d'oeil ! - Copyright ORBIFLY Décembre 2007 - Disclaimer

ORBIFLY MET'MAP TEAM :

Programmation & Développement : Alexandra Zaïnal
Sur une idée originale de : Baudouin d'Aumeries
Assistance à la programmation : Marc-Olivier Méhu
Soutien technique & logistique : Manuel Goepfert

Contact : metmap@orbifly.com




SOURCES & CREDITS :

   NOAA